EHRD/RTM METAR and TAF weather

Enter ICAO airport designator
Station Type Date Time Source
EHRD METAR 2020/09/18 20:25 UTC NOAA

EHRD 182025Z AUTO 06008KT 9999 NCD 13/09 Q1021 NOSIG


Station Type Date Time Source
EHRD Decoded METAR 2020/09/18 20:25 UTC NOAA

Rotterdam Airport Zestienhoven, Netherlands (EHRD) 51-57N 004-27E -4M
Sep 18, 2020 - 04:25 PM EDT / 2020.09.18 2025 UTC
Wind: from the ENE (060 degrees) at 9 MPH (8 KT):0
Visibility: greater than 7 mile(s):0
Temperature: 55 F (13 C)
Dew Point: 48 F (9 C)
Relative Humidity: 76%
Pressure (altimeter): 30.15 in. Hg (1021 hPa)
ob: EHRD 182025Z AUTO 06008KT 9999 NCD 13/09 Q1021 NOSIG
cycle: 20

Station Type Date Time Source
EHRD TAF 2020/09/18 18:27 UTC NOAA

TAF EHRD 181650Z 1818/1924 07011KT CAVOK

Example: see airport list